createdAt,value
2023-04-10T00:01:32.584Z,99.90
2023-04-10T00:04:01.010Z,99.90
2023-04-10T00:06:29.526Z,99.90
2023-04-10T00:08:57.528Z,99.90
2023-04-10T00:11:25.989Z,99.90
2023-04-10T00:13:55.159Z,99.90
2023-04-10T00:16:24.943Z,99.90
2023-04-10T00:18:54.466Z,99.90
2023-04-10T00:21:22.503Z,99.90
2023-04-10T00:23:50.693Z,99.90
2023-04-10T00:26:20.971Z,99.90
2023-04-10T00:28:49.511Z,99.90
2023-04-10T00:31:17.530Z,99.90
2023-04-10T00:33:45.646Z,99.90
2023-04-10T00:36:15.863Z,99.90
2023-04-10T00:38:43.826Z,99.90
2023-04-10T00:41:11.888Z,99.90
2023-04-10T00:43:39.898Z,99.90
2023-04-10T00:46:08.244Z,99.90
2023-04-10T00:48:36.610Z,99.90
2023-04-10T00:51:07.345Z,99.90
2023-04-10T00:53:36.861Z,99.90
2023-04-10T00:56:05.440Z,99.90
2023-04-10T00:58:33.401Z,99.90
2023-04-10T01:01:02.086Z,99.90
2023-04-10T01:03:30.285Z,99.90
2023-04-10T01:06:05.525Z,99.90
2023-04-10T01:08:45.835Z,99.90
2023-04-10T01:11:22.498Z,99.90
2023-04-10T01:13:56.167Z,99.90
2023-04-10T01:16:30.534Z,99.90
2023-04-10T01:19:04.391Z,99.90
2023-04-10T01:21:35.344Z,99.90
2023-04-10T01:24:22.479Z,99.90
2023-04-10T01:27:13.312Z,99.90
2023-04-10T01:29:46.948Z,99.90
2023-04-10T01:32:18.581Z,99.90
2023-04-10T01:34:50.401Z,99.90
2023-04-10T01:37:22.209Z,99.90
2023-04-10T01:39:55.435Z,99.90
2023-04-10T01:42:24.419Z,99.90
2023-04-10T01:44:54.656Z,99.90
2023-04-10T01:47:24.374Z,99.90
2023-04-10T01:49:53.980Z,99.90
2023-04-10T01:52:22.404Z,99.90
2023-04-10T01:54:59.417Z,99.90
2023-04-10T01:57:36.939Z,99.90
2023-04-10T02:00:07.504Z,99.90
2023-04-10T02:02:43.880Z,99.90
2023-04-10T02:05:12.319Z,99.90
2023-04-10T02:07:45.666Z,99.90
2023-04-10T02:10:16.874Z,99.90
2023-04-10T02:12:50.519Z,99.90
2023-04-10T02:15:22.427Z,99.90
2023-04-10T02:17:51.627Z,99.90
2023-04-10T02:20:19.891Z,99.90
2023-04-10T02:22:48.404Z,99.90
2023-04-10T02:25:17.646Z,99.90
2023-04-10T02:27:45.836Z,99.90
2023-04-10T02:30:13.812Z,99.90
2023-04-10T02:32:44.703Z,99.90
2023-04-10T02:35:12.947Z,99.90
2023-04-10T02:37:42.531Z,99.90
2023-04-10T02:40:11.785Z,99.90
2023-04-10T02:42:48.524Z,99.90
2023-04-10T02:45:16.543Z,99.90
2023-04-10T02:47:46.847Z,99.90
2023-04-10T02:50:17.349Z,99.90
2023-04-10T02:52:47.108Z,99.90
2023-04-10T02:55:15.484Z,99.90
2023-04-10T02:57:44.024Z,99.90
2023-04-10T03:00:13.259Z,99.90
2023-04-10T03:03:11.863Z,99.90
2023-04-10T03:05:49.228Z,99.90
2023-04-10T03:08:19.377Z,99.90
2023-04-10T03:10:49.217Z,99.90
2023-04-10T03:13:18.161Z,99.90
2023-04-10T03:15:46.324Z,99.90
2023-04-10T03:18:15.741Z,99.90
2023-04-10T03:20:46.118Z,99.90
2023-04-10T03:23:14.192Z,99.90
2023-04-10T03:25:43.393Z,99.90
2023-04-10T03:28:12.230Z,99.90
2023-04-10T03:30:40.399Z,99.90
2023-04-10T03:33:08.360Z,99.90
2023-04-10T03:35:37.709Z,99.90
2023-04-10T03:38:07.813Z,99.90
2023-04-10T03:40:37.684Z,99.90
2023-04-10T03:43:08.080Z,99.90
2023-04-10T03:45:36.435Z,99.90
2023-04-10T03:48:04.811Z,99.90
2023-04-10T03:50:42.138Z,99.90
2023-04-10T03:53:10.727Z,99.90
2023-04-10T03:55:39.530Z,99.90
2023-04-10T03:58:07.485Z,99.90
2023-04-10T04:00:36.558Z,99.90
2023-04-10T04:03:14.625Z,99.90
2023-04-10T04:06:02.957Z,99.90
2023-04-10T04:08:44.741Z,99.90
2023-04-10T04:11:23.484Z,99.90
2023-04-10T04:13:58.884Z,99.90
2023-04-10T04:16:41.903Z,99.90
2023-04-10T04:19:30.202Z,99.90
2023-04-10T04:22:27.455Z,99.90
2023-04-10T04:24:58.280Z,99.90
2023-04-10T04:27:44.925Z,99.90
2023-04-10T04:30:32.451Z,99.90
2023-04-10T04:33:18.953Z,99.90
2023-04-10T04:36:22.112Z,99.90
2023-04-10T04:39:22.559Z,99.90
2023-04-10T04:42:21.038Z,99.90
2023-04-10T04:45:04.518Z,99.90
2023-04-10T04:47:50.919Z,99.90
2023-04-10T04:50:28.607Z,99.90
2023-04-10T04:53:15.973Z,99.90
2023-04-10T04:55:51.041Z,99.90
2023-04-10T04:58:42.101Z,99.90
2023-04-10T05:01:16.434Z,99.90
2023-04-10T05:03:55.928Z,99.90
2023-04-10T05:06:49.216Z,99.90
2023-04-10T05:09:40.250Z,99.90
2023-04-10T05:12:18.982Z,99.90
2023-04-10T05:15:01.259Z,99.90
2023-04-10T05:17:53.116Z,99.90
2023-04-10T05:20:35.637Z,99.90
2023-04-10T05:23:32.763Z,99.90
2023-04-10T05:26:39.038Z,99.90
2023-04-10T05:29:34.399Z,99.90
2023-04-10T05:32:19.342Z,99.90
2023-04-10T05:35:22.382Z,99.90
2023-04-10T05:38:03.906Z,99.90
2023-04-10T05:40:46.430Z,99.90
2023-04-10T05:43:33.190Z,99.90
2023-04-10T05:46:25.816Z,99.90
2023-04-10T05:49:10.859Z,99.90
2023-04-10T05:51:58.223Z,99.90
2023-04-10T05:54:58.346Z,99.90
2023-04-10T05:57:51.307Z,99.90
2023-04-10T06:00:34.889Z,99.90
2023-04-10T06:03:33.265Z,99.90
2023-04-10T06:06:03.588Z,99.90
2023-04-10T06:08:32.500Z,99.90
2023-04-10T06:11:00.735Z,99.90
2023-04-10T06:13:29.616Z,99.90
2023-04-10T06:16:00.971Z,99.90
2023-04-10T06:18:31.836Z,99.90
2023-04-10T06:21:01.823Z,99.90
2023-04-10T06:23:29.923Z,99.90
2023-04-10T06:25:57.891Z,99.90
2023-04-10T06:28:25.886Z,99.90
2023-04-10T06:30:58.164Z,99.90
2023-04-10T06:33:35.872Z,99.90
2023-04-10T06:36:06.299Z,99.90
2023-04-10T06:38:39.588Z,99.90
2023-04-10T06:41:07.948Z,99.90
2023-04-10T06:43:36.320Z,99.90
2023-04-10T06:46:04.975Z,99.90
2023-04-10T06:48:34.725Z,99.90
2023-04-10T06:51:03.044Z,99.90
2023-04-10T06:53:31.473Z,99.90
2023-04-10T06:56:03.096Z,99.90
2023-04-10T06:58:32.126Z,99.90
2023-04-10T07:01:04.402Z,99.90
2023-04-10T07:03:34.117Z,99.90
2023-04-10T07:06:03.279Z,99.90
2023-04-10T07:08:33.957Z,99.90
2023-04-10T07:11:01.926Z,99.90
2023-04-10T07:13:29.933Z,99.90
2023-04-10T07:15:57.942Z,99.90
2023-04-10T07:18:25.920Z,99.90
2023-04-10T07:20:55.305Z,99.90
2023-04-10T07:23:23.322Z,99.90
2023-04-10T07:25:52.058Z,99.90
2023-04-10T07:28:20.173Z,99.90
2023-04-10T07:30:48.186Z,99.90
2023-04-10T07:33:16.743Z,99.90
2023-04-10T07:35:44.872Z,99.90
2023-04-10T07:38:14.529Z,99.90
2023-04-10T07:40:42.603Z,99.90
2023-04-10T07:43:10.586Z,99.90
2023-04-10T07:45:38.644Z,99.90
2023-04-10T07:48:07.527Z,99.90
2023-04-10T07:50:36.191Z,99.90
2023-04-10T07:53:07.771Z,99.90
2023-04-10T07:55:40.291Z,99.90
2023-04-10T07:58:08.259Z,99.90
2023-04-10T08:00:36.373Z,99.90
2023-04-10T08:03:05.794Z,99.90
2023-04-10T08:05:34.018Z,99.90
2023-04-10T08:08:02.043Z,99.90
2023-04-10T08:10:30.016Z,99.90
2023-04-10T08:12:59.352Z,99.90
2023-04-10T08:15:27.370Z,99.90
2023-04-10T08:17:55.538Z,99.90
2023-04-10T08:20:23.577Z,99.90
2023-04-10T08:22:51.595Z,99.90
2023-04-10T08:25:19.556Z,99.90
2023-04-10T08:27:47.555Z,98.80
2023-04-10T08:30:16.969Z,98.80
2023-04-10T08:32:44.901Z,99.10
2023-04-10T08:35:12.836Z,99.30
2023-04-10T08:37:41.013Z,99.10
2023-04-10T08:40:10.281Z,99.10
2023-04-10T08:42:38.263Z,99.50
2023-04-10T08:45:07.051Z,99.40
2023-04-10T08:47:38.906Z,99.10
2023-04-10T08:50:11.002Z,98.80
2023-04-10T08:52:43.927Z,98.20
2023-04-10T08:55:14.981Z,98.00
2023-04-10T08:57:50.872Z,97.30
2023-04-10T09:03:14.274Z,97.30
2023-04-10T09:05:42.422Z,97.40
2023-04-10T09:08:10.814Z,97.40
2023-04-10T09:10:39.259Z,97.60
2023-04-10T09:13:07.689Z,97.80
2023-04-10T09:15:56.614Z,97.60
2023-04-10T09:18:42.428Z,97.00
2023-04-10T09:21:11.718Z,97.20
2023-04-10T09:23:39.819Z,97.10
2023-04-10T09:26:27.339Z,97.10
2023-04-10T09:29:02.845Z,96.70
2023-04-10T09:31:33.042Z,96.90
2023-04-10T09:34:12.105Z,96.40
2023-04-10T09:36:41.273Z,95.60
2023-04-10T09:39:12.893Z,95.00
2023-04-10T09:41:51.720Z,94.30
2023-04-10T09:44:29.764Z,94.30
2023-04-10T09:46:57.849Z,93.10
2023-04-10T09:49:27.339Z,92.50
2023-04-10T09:51:55.608Z,90.60
2023-04-10T09:54:37.958Z,89.70
2023-04-10T09:57:08.281Z,86.80
2023-04-10T09:59:40.289Z,87.20
2023-04-10T10:02:10.499Z,89.10
2023-04-10T10:04:42.544Z,87.20
2023-04-10T10:07:11.008Z,86.70
2023-04-10T10:09:39.037Z,86.80
2023-04-10T10:12:08.373Z,87.80
2023-04-10T10:14:40.464Z,88.90
2023-04-10T10:17:12.137Z,88.70
2023-04-10T10:19:47.574Z,87.30
2023-04-10T10:22:16.004Z,87.20
2023-04-10T10:24:48.317Z,87.20
2023-04-10T10:27:20.271Z,87.10
2023-04-10T10:29:49.867Z,85.70
2023-04-10T10:32:18.872Z,86.60
2023-04-10T10:34:48.814Z,86.00
2023-04-10T10:37:18.153Z,85.20
2023-04-10T10:39:54.826Z,84.50
2023-04-10T10:42:29.107Z,82.50
2023-04-10T10:45:09.058Z,81.30
2023-04-10T10:47:48.896Z,80.40
2023-04-10T10:50:18.309Z,81.10
2023-04-10T10:52:49.134Z,79.80
2023-04-10T10:55:35.088Z,77.90
2023-04-10T10:58:05.210Z,78.90
2023-04-10T11:01:18.999Z,79.40
2023-04-10T11:03:48.261Z,80.60
2023-04-10T11:06:19.638Z,80.30
2023-04-10T11:08:49.030Z,79.00
2023-04-10T11:11:18.492Z,78.50
2023-04-10T11:14:17.866Z,78.80
2023-04-10T11:16:47.844Z,76.80
2023-04-10T11:19:19.268Z,75.50
2023-04-10T11:22:15.380Z,75.10
2023-04-10T11:24:54.015Z,75.90
2023-04-10T11:27:46.391Z,77.80
2023-04-10T11:30:34.545Z,76.30
2023-04-10T11:33:04.452Z,76.90
2023-04-10T11:35:33.673Z,77.30
2023-04-10T11:38:14.774Z,77.10
2023-04-10T11:41:01.440Z,77.90
2023-04-10T11:43:29.595Z,76.80
2023-04-10T11:46:08.462Z,76.10
2023-04-10T11:48:37.579Z,74.90
2023-04-10T11:51:09.963Z,75.70
2023-04-10T11:53:43.145Z,74.30
2023-04-10T11:56:18.612Z,73.90
2023-04-10T11:58:46.590Z,74.00
2023-04-10T12:01:15.551Z,74.10
2023-04-10T12:03:45.324Z,72.50
2023-04-10T12:06:16.042Z,70.90
2023-04-10T12:08:47.754Z,71.40
2023-04-10T12:11:18.630Z,71.00
2023-04-10T12:13:46.705Z,69.80
2023-04-10T12:16:18.538Z,69.90
2023-04-10T12:18:46.624Z,70.10
2023-04-10T12:21:14.864Z,68.40
2023-04-10T12:23:45.220Z,67.10
2023-04-10T12:26:14.909Z,67.00
2023-04-10T12:28:50.310Z,66.50
2023-04-10T12:31:18.387Z,68.40
2023-04-10T12:33:47.275Z,69.50
2023-04-10T12:36:22.407Z,69.50
2023-04-10T12:38:51.819Z,69.00
2023-04-10T12:41:23.503Z,68.80
2023-04-10T12:43:53.049Z,68.60
2023-04-10T12:46:26.388Z,68.80
2023-04-10T12:48:54.601Z,68.50
2023-04-10T12:51:44.576Z,67.60
2023-04-10T12:54:28.725Z,64.60
2023-04-10T12:56:57.696Z,64.50
2023-04-10T12:59:26.431Z,65.10
2023-04-10T13:01:54.556Z,65.00
2023-04-10T13:04:22.957Z,63.00
2023-04-10T13:06:53.171Z,62.70
2023-04-10T13:09:24.816Z,61.20
2023-04-10T13:11:53.145Z,61.90
2023-04-10T13:14:21.610Z,62.30
2023-04-10T13:16:49.631Z,62.90
2023-04-10T13:19:17.612Z,63.30
2023-04-10T13:21:45.580Z,63.60
2023-04-10T13:24:15.271Z,63.50
2023-04-10T13:26:45.861Z,63.40
2023-04-10T13:29:15.524Z,63.50
2023-04-10T13:31:43.609Z,64.10
2023-04-10T13:34:11.596Z,64.70
2023-04-10T13:36:39.682Z,64.10
2023-04-10T13:39:07.722Z,64.50
2023-04-10T13:41:35.765Z,63.90
2023-04-10T13:44:05.130Z,64.20
2023-04-10T13:46:33.123Z,62.40
2023-04-10T13:49:01.145Z,61.20
2023-04-10T13:51:29.727Z,60.80
2023-04-10T13:53:57.797Z,61.00
2023-04-10T13:56:25.925Z,61.90
2023-04-10T13:58:57.087Z,60.00
2023-04-10T14:01:29.369Z,61.40
2023-04-10T14:03:57.527Z,61.90
2023-04-10T14:06:28.186Z,61.60
2023-04-10T14:08:56.402Z,61.20
2023-04-10T14:11:24.646Z,61.30
2023-04-10T14:13:52.761Z,61.40
2023-04-10T14:16:21.030Z,61.70
2023-04-10T14:18:50.341Z,60.50
2023-04-10T14:21:20.491Z,61.50
2023-04-10T14:23:49.078Z,61.50
2023-04-10T14:26:17.201Z,62.20
2023-04-10T14:28:45.256Z,62.60
2023-04-10T14:31:13.352Z,62.60
2023-04-10T14:33:41.409Z,62.20
2023-04-10T14:36:11.183Z,62.50
2023-04-10T14:38:39.788Z,62.80
2023-04-10T14:41:08.455Z,63.60
2023-04-10T14:43:36.422Z,64.00
2023-04-10T14:46:04.531Z,64.10
2023-04-10T14:48:32.545Z,64.20
2023-04-10T14:51:01.358Z,64.20
2023-04-10T14:53:30.869Z,64.30
2023-04-10T14:55:58.803Z,64.40
2023-04-10T14:58:26.733Z,64.40
2023-04-10T15:00:54.690Z,64.30
2023-04-10T15:03:25.214Z,64.60
2023-04-10T15:06:00.257Z,65.30
2023-04-10T15:08:28.161Z,65.50
2023-04-10T15:10:57.465Z,65.70
2023-04-10T15:13:25.612Z,66.10
2023-04-10T15:15:54.347Z,66.50
2023-04-10T15:18:22.279Z,67.20
2023-04-10T15:20:50.236Z,67.50
2023-04-10T15:23:18.148Z,69.70
2023-04-10T15:25:46.106Z,69.10
2023-04-10T15:28:15.577Z,69.20
2023-04-10T15:30:45.578Z,70.10
2023-04-10T15:33:13.625Z,70.00
2023-04-10T15:35:41.616Z,70.10
2023-04-10T15:38:10.095Z,70.50
2023-04-10T15:40:38.205Z,70.60
2023-04-10T15:43:06.153Z,70.50
2023-04-10T15:45:36.856Z,71.10
2023-04-10T15:48:05.173Z,71.50
2023-04-10T15:50:33.844Z,72.20
2023-04-10T15:53:01.838Z,72.70
2023-04-10T15:55:29.898Z,73.00
2023-04-10T15:57:58.981Z,71.30
2023-04-10T16:00:27.794Z,71.70
2023-04-10T16:02:58.154Z,71.30
2023-04-10T16:05:26.377Z,69.20
2023-04-10T16:07:54.318Z,68.60
2023-04-10T16:10:22.312Z,69.10
2023-04-10T16:12:50.278Z,69.30
2023-04-10T16:15:18.350Z,69.60
2023-04-10T16:17:46.316Z,68.50
2023-04-10T16:20:15.875Z,68.90
2023-04-10T16:22:43.868Z,69.50
2023-04-10T16:25:11.952Z,70.10
2023-04-10T16:27:39.889Z,70.40
2023-04-10T16:30:09.423Z,70.20
2023-04-10T16:32:37.463Z,70.70
2023-04-10T16:35:06.492Z,71.00
2023-04-10T16:37:37.957Z,71.30
2023-04-10T16:40:07.098Z,71.60
2023-04-10T16:42:35.192Z,71.90
2023-04-10T16:45:03.223Z,72.30
2023-04-10T16:47:31.266Z,72.50
2023-04-10T16:50:01.866Z,73.20
2023-04-10T16:52:29.866Z,73.70
2023-04-10T16:54:59.345Z,73.90
2023-04-10T16:57:27.490Z,73.90
2023-04-10T16:59:58.165Z,74.70
2023-04-10T17:02:26.582Z,74.70
2023-04-10T17:04:56.232Z,74.80
2023-04-10T17:07:24.618Z,75.40
2023-04-10T17:09:52.650Z,75.50
2023-04-10T17:12:21.984Z,76.60
2023-04-10T17:14:49.976Z,77.80
2023-04-10T17:17:18.041Z,78.40
2023-04-10T17:19:48.752Z,78.60
2023-04-10T17:22:16.979Z,79.20
2023-04-10T17:24:46.479Z,80.00
2023-04-10T17:27:17.210Z,81.00
2023-04-10T17:29:46.538Z,81.10
2023-04-10T17:32:14.544Z,81.90
2023-04-10T17:34:42.474Z,82.60
2023-04-10T17:37:10.538Z,83.10
2023-04-10T17:39:38.486Z,83.60
2023-04-10T17:42:06.547Z,83.60
2023-04-10T17:44:37.603Z,84.30
2023-04-10T17:47:08.504Z,84.40
2023-04-10T17:49:36.474Z,85.00
2023-04-10T17:52:04.489Z,85.60
2023-04-10T17:54:32.438Z,85.90
2023-04-10T17:57:01.400Z,86.20
2023-04-10T17:59:31.575Z,88.10
2023-04-10T18:01:59.791Z,90.30
2023-04-10T18:04:29.219Z,90.90
2023-04-10T18:06:57.193Z,91.60
2023-04-10T18:09:25.179Z,92.10
2023-04-10T18:11:53.074Z,92.80
2023-04-10T18:14:21.543Z,93.60
2023-04-10T18:16:50.324Z,93.70
2023-04-10T18:19:18.244Z,94.80
2023-04-10T18:21:52.125Z,94.60
2023-04-10T18:24:20.143Z,95.70
2023-04-10T18:26:49.181Z,96.50
2023-04-10T18:29:17.174Z,97.30
2023-04-10T18:31:45.132Z,97.90
2023-04-10T18:34:13.352Z,98.80
2023-04-10T18:36:43.456Z,99.30
2023-04-10T18:39:12.852Z,99.90
2023-04-10T18:41:40.877Z,99.90
2023-04-10T18:44:11.610Z,99.90
2023-04-10T18:46:42.673Z,99.90
2023-04-10T18:49:12.317Z,99.90
2023-04-10T18:51:41.286Z,99.90
2023-04-10T18:54:09.253Z,99.90
2023-04-10T18:56:39.615Z,99.90
2023-04-10T18:59:07.572Z,99.90
2023-04-10T19:01:35.659Z,99.90
2023-04-10T19:04:03.906Z,99.90
2023-04-10T19:06:32.718Z,99.90
2023-04-10T19:09:00.775Z,99.90
2023-04-10T19:11:31.602Z,99.90
2023-04-10T19:14:02.911Z,99.90
2023-04-10T19:16:30.937Z,99.90
2023-04-10T19:18:58.909Z,99.90
2023-04-10T19:21:27.459Z,99.90
2023-04-10T19:23:55.442Z,99.90
2023-04-10T19:26:23.550Z,99.90
2023-04-10T19:28:51.525Z,99.90
2023-04-10T19:31:23.905Z,99.90
2023-04-10T19:33:52.062Z,99.90
2023-04-10T19:36:20.479Z,99.90
2023-04-10T19:38:51.041Z,99.90
2023-04-10T19:41:19.498Z,99.90
2023-04-10T19:43:47.554Z,99.90
2023-04-10T19:46:18.527Z,99.90
2023-04-10T19:48:48.523Z,99.90
2023-04-10T19:51:16.663Z,99.90
2023-04-10T19:53:44.898Z,99.90
2023-04-10T19:56:12.819Z,99.90
2023-04-10T19:58:56.402Z,99.90
2023-04-10T20:01:24.646Z,99.90
2023-04-10T20:03:54.094Z,99.90
2023-04-10T20:06:22.560Z,99.90
2023-04-10T20:08:50.887Z,99.90
2023-04-10T20:11:18.838Z,99.90
2023-04-10T20:13:46.791Z,99.90
2023-04-10T20:16:14.736Z,99.90
2023-04-10T20:18:42.680Z,99.90
2023-04-10T20:21:11.985Z,99.90
2023-04-10T20:23:42.829Z,99.90
2023-04-10T20:26:12.333Z,99.90
2023-04-10T20:28:40.640Z,99.90
2023-04-10T20:31:10.510Z,99.90
2023-04-10T20:33:38.701Z,99.90
2023-04-10T20:36:07.841Z,99.90
2023-04-10T20:38:37.530Z,99.90
2023-04-10T20:41:05.651Z,99.90
2023-04-10T20:43:35.521Z,99.90
2023-04-10T20:46:05.035Z,99.90
2023-04-10T20:48:33.009Z,99.90
2023-04-10T20:51:00.947Z,99.90
2023-04-10T20:53:30.071Z,99.90
2023-04-10T20:55:59.377Z,99.90
2023-04-10T20:58:27.392Z,99.90
2023-04-10T21:00:56.494Z,99.90
2023-04-10T21:03:24.840Z,99.90
2023-04-10T21:05:54.443Z,99.90
2023-04-10T21:08:22.526Z,99.90
2023-04-10T21:10:51.239Z,99.90
2023-04-10T21:13:20.577Z,99.90
2023-04-10T21:15:50.273Z,99.90
2023-04-10T21:18:18.366Z,99.90
2023-04-10T21:20:46.442Z,99.90
2023-04-10T21:23:14.660Z,99.90
2023-04-10T21:25:42.643Z,99.90
2023-04-10T21:28:10.613Z,99.90
2023-04-10T21:30:39.846Z,99.90
2023-04-10T21:33:07.813Z,99.90
2023-04-10T21:35:35.997Z,99.90
2023-04-10T21:38:03.969Z,99.90
2023-04-10T21:40:34.978Z,99.90
2023-04-10T21:43:03.112Z,99.90
2023-04-10T21:45:34.800Z,99.90
2023-04-10T21:48:08.321Z,99.90
2023-04-10T21:50:36.269Z,99.90
2023-04-10T21:53:04.248Z,99.90
2023-04-10T21:55:34.455Z,99.90
2023-04-10T21:58:02.484Z,99.90
2023-04-10T22:00:30.575Z,99.90
2023-04-10T22:02:58.731Z,99.90
2023-04-10T22:05:28.146Z,99.90
2023-04-10T22:07:56.496Z,99.90
2023-04-10T22:10:24.483Z,99.90
2023-04-10T22:12:52.410Z,99.90
2023-04-10T22:15:20.550Z,99.90
2023-04-10T22:17:48.593Z,99.90
2023-04-10T22:20:17.112Z,99.90
2023-04-10T22:22:46.448Z,99.90
2023-04-10T22:25:14.392Z,99.90
2023-04-10T22:27:42.370Z,99.90
2023-04-10T22:30:11.373Z,99.90
2023-04-10T22:32:39.319Z,99.90
2023-04-10T22:35:09.203Z,99.90
2023-04-10T22:37:37.195Z,99.90
2023-04-10T22:40:08.431Z,99.90
2023-04-10T22:42:36.381Z,99.90
2023-04-10T22:45:04.509Z,99.90
2023-04-10T22:47:32.462Z,99.90
2023-04-10T22:50:00.412Z,99.90
2023-04-10T22:52:28.345Z,99.90
2023-04-10T22:54:56.797Z,99.90
2023-04-10T22:57:26.039Z,99.90
2023-04-10T22:59:53.957Z,99.90
2023-04-10T23:02:21.903Z,99.90
2023-04-10T23:04:50.060Z,99.90
2023-04-10T23:07:18.132Z,99.90
2023-04-10T23:09:46.084Z,99.90
2023-04-10T23:12:14.021Z,99.90
2023-04-10T23:14:43.299Z,99.90
2023-04-10T23:17:11.249Z,99.90
2023-04-10T23:19:39.179Z,99.90
2023-04-10T23:22:07.067Z,99.90
2023-04-10T23:24:35.023Z,99.90
2023-04-10T23:27:03.438Z,99.90
2023-04-10T23:29:31.437Z,99.90
2023-04-10T23:32:00.712Z,99.90
2023-04-10T23:34:32.864Z,99.90
2023-04-10T23:37:00.807Z,99.90
2023-04-10T23:39:30.427Z,99.90
2023-04-10T23:41:59.534Z,99.90
2023-04-10T23:44:27.779Z,99.90
2023-04-10T23:46:55.816Z,99.90
2023-04-10T23:49:25.219Z,99.90
2023-04-10T23:51:53.204Z,99.90
2023-04-10T23:54:21.130Z,99.90
2023-04-10T23:56:49.074Z,99.90
2023-04-10T23:59:17.005Z,99.90
